Airport View

Enter ICAO identifier to see the current METAR for that AWOS.

KFNL for example

K79S 241035Z AUTO 24005KT 10SM 16/12 A2985

24 Jul 2014 10:39

Frequency: 122.8

Phone: 406-622-5976

Other Area AWOS: KGFA - KGTF - KHVR - KLWT

TAF AMD KGFA 2404/2509 09007KT 9999 BKN090 QNH2981INS BECMG 2405/2406 18012KT 9999 NSW SCT140 QNH2983INS BECMG 2414/2415 24015G25KT 9999 FEW140 QNH3004INS BECMG 2419/2420 24025G35KT 9999 FEW140 QNH3007INS TX22/2404Z TN12/2508Z AMD 240433